createdAt,value
2019-04-23T00:02:13.501Z,97373.97
2019-04-23T00:04:20.176Z,97370.70
2019-04-23T00:06:28.147Z,97367.80
2019-04-23T00:08:41.611Z,97368.67
2019-04-23T00:15:04.407Z,97363.31
2019-04-23T00:16:57.830Z,97359.48
2019-04-23T00:18:57.465Z,97357.00
2019-04-23T00:21:13.941Z,97355.36
2019-04-23T00:23:16.372Z,97348.56
2019-04-23T00:29:53.421Z,97347.31
2019-04-23T00:31:56.187Z,97350.94
2019-04-23T00:33:59.047Z,97351.83
2019-04-23T00:36:03.066Z,97343.59
2019-04-23T00:38:11.877Z,97342.83
2019-04-23T00:40:10.203Z,97344.47
2019-04-23T00:42:23.987Z,97341.45
2019-04-23T00:44:25.281Z,97343.09
2019-04-23T00:46:28.922Z,97335.96
2019-04-23T00:50:52.224Z,97325.50
2019-04-23T00:52:45.698Z,97331.05
2019-04-23T00:54:57.512Z,97329.48
2019-04-23T00:57:01.396Z,97333.59
2019-04-23T01:01:11.553Z,97318.17
2019-04-23T01:05:24.842Z,97321.38
2019-04-23T01:07:33.376Z,97302.44
2019-04-23T01:09:44.130Z,97303.33
2019-04-23T01:11:39.318Z,97302.31
2019-04-23T01:14:01.123Z,97300.97
2019-04-23T01:15:59.693Z,97307.34
2019-04-23T01:20:18.861Z,97299.23
2019-04-23T01:22:04.527Z,97304.49
2019-04-23T01:24:31.290Z,97294.63
2019-04-23T01:27:32.487Z,97288.93
2019-04-23T01:29:22.248Z,97290.69
2019-04-23T01:31:31.124Z,97283.56
2019-04-23T01:33:42.446Z,97287.45
2019-04-23T01:35:36.341Z,97278.78
2019-04-23T01:37:41.105Z,97277.16
2019-04-23T01:39:52.812Z,97270.03
2019-04-23T01:42:03.915Z,97268.48
2019-04-23T01:43:58.235Z,97271.84
2019-04-23T01:46:09.528Z,97262.05
2019-04-23T01:48:12.437Z,97261.55
2019-04-23T01:50:20.187Z,97261.31
2019-04-23T01:52:31.996Z,97260.01
2019-04-23T01:54:32.467Z,97258.92
2019-04-23T01:56:36.876Z,97254.58
2019-04-23T01:58:59.140Z,97245.83
2019-04-23T02:00:41.245Z,97248.27
2019-04-23T02:03:09.434Z,97244.72
2019-04-23T02:05:01.215Z,97245.83
2019-04-23T02:07:09.036Z,97241.70
2019-04-23T02:09:12.637Z,97245.59
2019-04-23T02:11:11.730Z,97240.78
2019-04-23T02:15:29.940Z,97240.58
2019-04-23T02:17:38.362Z,97237.60
2019-04-23T02:19:45.811Z,97242.77
2019-04-23T02:22:01.179Z,97238.22
2019-04-23T02:24:05.016Z,97235.68
2019-04-23T02:26:09.050Z,97230.48
2019-04-23T02:28:19.563Z,97228.81
2019-04-23T02:32:40.404Z,97216.02
2019-04-23T02:41:03.630Z,97211.35
2019-04-23T02:45:09.623Z,97206.22
2019-04-23T02:49:40.449Z,97202.23
2019-04-23T02:51:42.356Z,97198.73
2019-04-23T02:53:51.270Z,97199.05
2019-04-23T03:02:15.575Z,97187.82
2019-04-23T03:04:14.822Z,97181.26
2019-04-23T03:06:16.395Z,97185.38
2019-04-23T03:08:24.949Z,97178.52
2019-04-23T03:10:21.028Z,97173.36
2019-04-23T03:14:33.038Z,97174.78
2019-04-23T03:18:58.179Z,97170.23
2019-04-23T03:25:47.869Z,97162.36
2019-04-23T03:35:17.847Z,97166.50
2019-04-23T03:36:17.067Z,97163.53
2019-04-23T03:38:41.718Z,97155.91
2019-04-23T03:40:48.234Z,97158.66
2019-04-23T03:44:53.380Z,97158.72
2019-04-23T03:46:41.996Z,97152.73
2019-04-23T03:50:58.708Z,97155.77
2019-04-23T03:53:10.982Z,97159.09
2019-04-23T03:55:10.418Z,97156.14
2019-04-23T03:57:18.489Z,97150.72
2019-04-23T03:59:29.020Z,97147.98
2019-04-23T04:04:22.929Z,97152.44
2019-04-23T04:07:47.302Z,97156.55
2019-04-23T04:11:48.654Z,97154.07
2019-04-23T04:16:00.746Z,97153.81
2019-04-23T04:22:28.814Z,97151.13
2019-04-23T04:24:35.996Z,97153.92
2019-04-23T04:28:48.638Z,97153.69
2019-04-23T04:32:56.572Z,97148.20
2019-04-23T04:37:27.141Z,97141.41
2019-04-23T04:38:58.989Z,97147.71
2019-04-23T04:47:40.293Z,97133.95
2019-04-23T04:49:44.072Z,97139.61
2019-04-23T04:51:49.775Z,97137.69
2019-04-23T04:55:57.250Z,97129.35
2019-04-23T05:02:20.920Z,97134.38
2019-04-23T05:04:19.875Z,97140.02
2019-04-23T05:08:28.881Z,97131.98
2019-04-23T05:12:36.240Z,97135.97
2019-04-23T05:19:25.136Z,97139.35
2019-04-23T05:21:43.589Z,97131.62
2019-04-23T05:23:58.023Z,97127.13
2019-04-23T05:25:46.225Z,97126.77
2019-04-23T05:28:08.035Z,97129.61
2019-04-23T05:30:02.961Z,97132.23
2019-04-23T05:31:58.096Z,97130.24
2019-04-23T05:34:14.557Z,97127.63
2019-04-23T05:36:20.150Z,97129.98
2019-04-23T05:38:29.970Z,97126.63
2019-04-23T05:40:30.487Z,97127.37
2019-04-23T05:42:26.650Z,97121.83
2019-04-23T05:44:51.038Z,97121.98
2019-04-23T05:46:52.294Z,97125.74
2019-04-23T05:48:50.886Z,97127.11
2019-04-23T05:51:01.137Z,97118.89
2019-04-23T05:53:01.366Z,97117.19
2019-04-23T05:55:01.614Z,97115.42
2019-04-23T05:57:01.779Z,97121.17
2019-04-23T05:59:12.967Z,97120.55
2019-04-23T06:03:29.407Z,97120.44
2019-04-23T06:05:40.096Z,97126.80
2019-04-23T06:09:52.156Z,97122.40
2019-04-23T06:12:01.529Z,97134.91
2019-04-23T06:14:07.652Z,97127.75
2019-04-23T06:16:16.370Z,97122.26
2019-04-23T06:18:17.135Z,97116.16
2019-04-23T06:20:31.604Z,97126.38
2019-04-23T06:22:29.066Z,97104.22
2019-04-23T06:24:39.809Z,97111.90
2019-04-23T06:26:39.556Z,97122.88
2019-04-23T06:28:44.026Z,97120.77
2019-04-23T06:33:14.568Z,97113.67
2019-04-23T06:34:56.781Z,97113.97
2019-04-23T06:37:04.999Z,97110.92
2019-04-23T06:39:08.435Z,97112.87
2019-04-23T06:41:16.754Z,97112.95
2019-04-23T06:43:35.186Z,97124.34
2019-04-23T06:45:32.173Z,97125.34
2019-04-23T06:47:36.137Z,97112.77
2019-04-23T06:49:44.122Z,97119.08
2019-04-23T06:52:02.415Z,97112.73
2019-04-23T06:53:59.973Z,97107.08
2019-04-23T06:56:06.762Z,97105.88
2019-04-23T06:58:12.342Z,97100.38
2019-04-23T07:00:16.679Z,97103.23
2019-04-23T07:02:35.978Z,97116.89
2019-04-23T07:04:30.596Z,97101.52
2019-04-23T07:06:32.615Z,97106.38
2019-04-23T07:10:54.319Z,97108.63
2019-04-23T07:12:53.855Z,97106.16
2019-04-23T07:16:58.935Z,97112.94
2019-04-23T07:19:09.495Z,97100.48
2019-04-23T07:21:15.449Z,97096.19
2019-04-23T07:23:26.075Z,97086.25
2019-04-23T07:25:23.961Z,97092.14
2019-04-23T07:27:24.578Z,97088.14
2019-04-23T07:29:32.667Z,97086.85
2019-04-23T07:31:40.934Z,97092.09
2019-04-23T07:33:54.722Z,97091.27
2019-04-23T07:35:51.821Z,97088.80
2019-04-23T07:38:09.307Z,97096.37
2019-04-23T07:40:39.033Z,97089.37
2019-04-23T07:45:17.121Z,97075.22
2019-04-23T07:49:43.386Z,97074.66
2019-04-23T07:51:37.142Z,97071.91
2019-04-23T07:53:46.372Z,97082.67
2019-04-23T07:58:00.255Z,97070.27
2019-04-23T08:00:00.779Z,97066.47
2019-04-23T08:02:11.549Z,97071.24
2019-04-23T08:04:08.833Z,97071.30
2019-04-23T08:06:12.020Z,97063.93
2019-04-23T08:08:21.453Z,97048.27
2019-04-23T08:10:29.739Z,97070.58
2019-04-23T08:14:47.970Z,97063.78
2019-04-23T08:16:36.808Z,97055.86
2019-04-23T08:20:57.175Z,97061.27
2019-04-23T08:23:12.576Z,97065.22
2019-04-23T08:25:45.823Z,97069.56
2019-04-23T08:28:00.489Z,97064.62
2019-04-23T08:30:00.184Z,97075.33
2019-04-23T08:34:23.908Z,97064.15
2019-04-23T08:36:23.741Z,97071.06
2019-04-23T08:38:32.302Z,97059.72
2019-04-23T08:40:35.341Z,97059.66
2019-04-23T08:45:15.593Z,97063.81
2019-04-23T08:47:32.034Z,97049.09
2019-04-23T08:49:36.203Z,97049.94
2019-04-23T08:51:44.183Z,97049.29
2019-04-23T08:55:51.628Z,97052.20
2019-04-23T08:57:47.100Z,97057.19
2019-04-23T08:59:57.398Z,97065.80
2019-04-23T09:04:08.922Z,97058.43
2019-04-23T09:06:16.149Z,97053.02
2019-04-23T09:08:32.726Z,97063.04
2019-04-23T09:10:32.431Z,97047.36
2019-04-23T09:14:31.517Z,97059.89
2019-04-23T09:16:48.812Z,97057.63
2019-04-23T09:18:51.225Z,97057.73
2019-04-23T09:20:49.692Z,97057.50
2019-04-23T09:22:54.946Z,97062.35
2019-04-23T09:25:14.807Z,97068.13
2019-04-23T09:27:16.418Z,97062.47
2019-04-23T09:32:00.742Z,97056.80
2019-04-23T09:33:52.207Z,97047.86
2019-04-23T09:38:31.866Z,97046.47
2019-04-23T09:41:18.216Z,97055.81
2019-04-23T09:43:12.209Z,97043.48
2019-04-23T09:45:26.897Z,97037.63
2019-04-23T09:47:58.080Z,97029.38
2019-04-23T09:50:06.378Z,97036.40
2019-04-23T09:52:09.226Z,97032.48
2019-04-23T09:54:09.787Z,97026.03
2019-04-23T09:56:17.703Z,97022.19
2019-04-23T10:00:31.448Z,97021.87
2019-04-23T10:02:21.971Z,97025.32
2019-04-23T10:04:26.494Z,97030.28
2019-04-23T10:06:22.657Z,97032.56
2019-04-23T10:08:27.961Z,97029.67
2019-04-23T10:10:28.283Z,97021.05
2019-04-23T10:12:33.034Z,97014.70
2019-04-23T10:14:36.850Z,97016.78
2019-04-23T10:16:41.413Z,97025.20
2019-04-23T10:18:47.014Z,97021.14
2019-04-23T10:20:52.299Z,97024.03
2019-04-23T10:22:57.311Z,97027.73
2019-04-23T10:25:01.337Z,97028.98
2019-04-23T10:27:06.102Z,97025.98
2019-04-23T10:29:21.324Z,97024.81
2019-04-23T10:31:25.301Z,97029.32
2019-04-23T10:33:29.713Z,97025.95
2019-04-23T10:35:43.227Z,97032.42
2019-04-23T10:37:48.113Z,97029.41
2019-04-23T10:39:52.537Z,97017.86
2019-04-23T10:41:53.171Z,97014.07
2019-04-23T10:44:05.092Z,97015.33
2019-04-23T10:46:53.696Z,97013.91
2019-04-23T10:49:48.497Z,97013.48
2019-04-23T10:51:33.876Z,97010.42
2019-04-23T10:53:38.267Z,97006.27
2019-04-23T10:57:49.165Z,97010.41
2019-04-23T10:59:50.360Z,97001.62
2019-04-23T11:02:10.507Z,96993.06
2019-04-23T11:04:23.509Z,96997.20
2019-04-23T11:06:28.765Z,96982.98
2019-04-23T11:08:18.878Z,96996.70
2019-04-23T11:12:46.285Z,96983.80
2019-04-23T11:15:18.333Z,96987.83
2019-04-23T11:17:19.426Z,96993.05
2019-04-23T11:19:24.872Z,96996.37
2019-04-23T11:21:34.301Z,96993.45
2019-04-23T11:23:39.233Z,96995.83
2019-04-23T11:27:44.103Z,96997.86
2019-04-23T11:29:51.822Z,96994.50
2019-04-23T11:32:33.110Z,96992.61
2019-04-23T11:36:33.398Z,97002.22
2019-04-23T11:40:22.640Z,96998.56
2019-04-23T11:42:26.218Z,96999.01
2019-04-23T11:44:52.953Z,96990.70
2019-04-23T11:48:51.461Z,96992.89
2019-04-23T11:51:18.494Z,96988.03
2019-04-23T11:55:03.156Z,96985.59
2019-04-23T11:57:27.212Z,96995.70
2019-04-23T11:59:17.526Z,96995.70
2019-04-23T12:01:53.305Z,96991.89
2019-04-23T12:04:05.679Z,96988.64
2019-04-23T12:06:32.827Z,96999.80
2019-04-23T12:08:57.085Z,96998.28
2019-04-23T12:11:41.016Z,96987.12
2019-04-23T12:13:20.738Z,96994.80
2019-04-23T12:15:30.436Z,96990.64
2019-04-23T12:17:24.694Z,96994.89
2019-04-23T12:23:48.391Z,96978.87
2019-04-23T12:25:51.562Z,96984.13
2019-04-23T12:27:42.087Z,96983.66
2019-04-23T12:30:00.870Z,97002.66
2019-04-23T12:34:39.555Z,96989.38
2019-04-23T12:36:51.398Z,96995.23
2019-04-23T12:39:08.696Z,96992.31
2019-04-23T12:41:10.619Z,96992.69
2019-04-23T12:45:26.959Z,96980.48
2019-04-23T12:47:40.174Z,96987.19
2019-04-23T12:51:41.569Z,96979.53
2019-04-23T12:53:50.717Z,96988.09
2019-04-23T12:59:58.313Z,96966.82
2019-04-23T13:02:03.368Z,96961.45
2019-04-23T13:04:09.385Z,96959.84
2019-04-23T13:06:13.252Z,96959.84
2019-04-23T13:08:26.809Z,96961.89
2019-04-23T13:10:28.306Z,96969.64
2019-04-23T13:12:46.662Z,96970.13
2019-04-23T13:14:41.649Z,96970.13
2019-04-23T13:16:53.636Z,96961.80
2019-04-23T13:18:52.777Z,96959.70
2019-04-23T13:20:51.631Z,96956.11
2019-04-23T13:23:06.306Z,96954.52
2019-04-23T13:25:18.201Z,96955.09
2019-04-23T13:27:30.667Z,96954.88
2019-04-23T13:29:38.148Z,96954.88
2019-04-23T13:31:29.259Z,96965.28
2019-04-23T13:35:53.672Z,96958.92
2019-04-23T13:37:58.939Z,96957.30
2019-04-23T13:40:18.841Z,96948.02
2019-04-23T13:42:07.612Z,96948.66
2019-04-23T13:44:05.511Z,96948.66
2019-04-23T13:46:14.095Z,96943.77
2019-04-23T13:48:16.671Z,96943.77
2019-04-23T13:50:40.344Z,96954.67
2019-04-23T13:52:59.844Z,96947.22
2019-04-23T13:57:14.430Z,96935.69
2019-04-23T13:58:53.567Z,96949.89
2019-04-23T14:01:18.568Z,96938.46
2019-04-23T14:03:04.066Z,96938.46
2019-04-23T14:05:23.931Z,96948.98
2019-04-23T14:07:32.268Z,96937.77
2019-04-23T14:11:47.911Z,96935.83
2019-04-23T14:16:10.323Z,96937.55
2019-04-23T14:18:19.637Z,96940.55
2019-04-23T14:20:07.271Z,96930.05
2019-04-23T14:22:40.567Z,96938.75
2019-04-23T14:24:38.753Z,96938.75
2019-04-23T14:26:29.549Z,96935.02
2019-04-23T14:28:37.364Z,96937.36
2019-04-23T14:30:38.403Z,96937.36
2019-04-23T14:34:55.495Z,96935.97
2019-04-23T14:38:57.331Z,96930.71
2019-04-23T14:41:10.607Z,96939.13
2019-04-23T14:45:29.837Z,96936.64
2019-04-23T14:47:37.966Z,96933.06
2019-04-23T14:49:34.096Z,96938.61
2019-04-23T14:53:52.162Z,96952.22
2019-04-23T14:55:57.192Z,96939.50
2019-04-23T14:58:10.189Z,96939.62
2019-04-23T15:02:14.557Z,96939.42
2019-04-23T15:04:11.029Z,96946.92
2019-04-23T15:06:39.887Z,96940.23
2019-04-23T15:08:32.109Z,96943.00
2019-04-23T15:10:34.362Z,96940.57
2019-04-23T15:12:38.583Z,96941.75
2019-04-23T15:17:03.317Z,96941.30
2019-04-23T15:21:37.656Z,96937.65
2019-04-23T15:29:27.551Z,96948.80
2019-04-23T15:31:48.791Z,96949.26
2019-04-23T15:34:00.621Z,96934.34
2019-04-23T15:36:14.287Z,96943.48
2019-04-23T15:40:18.336Z,96933.39
2019-04-23T15:42:16.644Z,96961.07
2019-04-23T15:48:31.396Z,96938.88
2019-04-23T15:50:37.638Z,96937.77
2019-04-23T15:52:56.024Z,96937.77
2019-04-23T15:55:01.696Z,96942.27
2019-04-23T15:56:55.134Z,96938.05
2019-04-23T15:59:23.654Z,96936.42
2019-04-23T16:02:54.453Z,96934.74
2019-04-23T16:05:00.120Z,96944.51
2019-04-23T16:07:07.301Z,96941.72
2019-04-23T16:09:39.929Z,96941.72
2019-04-23T16:14:11.315Z,96944.14
2019-04-23T16:16:02.574Z,96947.27
2019-04-23T16:18:13.839Z,96945.88
2019-04-23T16:22:18.947Z,96947.77
2019-04-23T16:24:20.405Z,96948.48
2019-04-23T16:26:45.086Z,96947.00
2019-04-23T16:29:03.013Z,96941.59
2019-04-23T16:30:49.076Z,96948.89
2019-04-23T16:35:29.158Z,96953.02
2019-04-23T16:37:22.745Z,96953.02
2019-04-23T16:39:21.675Z,96954.98
2019-04-23T16:41:39.898Z,96951.20
2019-04-23T16:43:40.406Z,96941.06
2019-04-23T16:47:56.066Z,96941.72
2019-04-23T16:50:04.546Z,96939.61
2019-04-23T16:52:07.801Z,96925.92
2019-04-23T16:54:15.271Z,96932.40
2019-04-23T16:56:18.712Z,96936.79
2019-04-23T16:58:25.235Z,96930.31
2019-04-23T17:00:51.292Z,96930.31
2019-04-23T17:02:34.197Z,96927.05
2019-04-23T17:04:39.234Z,96925.22
2019-04-23T17:06:54.366Z,96919.55
2019-04-23T17:11:10.075Z,96911.38
2019-04-23T17:13:04.924Z,96914.84
2019-04-23T17:15:12.787Z,96912.58
2019-04-23T17:17:06.473Z,96912.47
2019-04-23T17:19:24.190Z,96923.47
2019-04-23T17:21:24.058Z,96916.80
2019-04-23T17:23:40.085Z,96926.25
2019-04-23T17:27:48.935Z,96943.93
2019-04-23T17:29:55.638Z,96942.30
2019-04-23T17:32:07.067Z,96947.76
2019-04-23T17:34:17.602Z,96950.38
2019-04-23T17:38:59.494Z,96950.39
2019-04-23T17:41:07.012Z,96956.78
2019-04-23T17:43:05.873Z,96962.78
2019-04-23T17:50:02.889Z,96962.13
2019-04-23T17:51:42.634Z,96959.81
2019-04-23T17:56:10.390Z,96959.05
2019-04-23T17:58:16.120Z,96963.31
2019-04-23T18:02:51.783Z,96970.71
2019-04-23T18:04:22.585Z,96971.61
2019-04-23T18:08:33.123Z,96971.28
2019-04-23T18:10:41.513Z,96970.02
2019-04-23T18:14:52.717Z,96981.23
2019-04-23T18:16:55.524Z,96979.97
2019-04-23T18:19:10.339Z,96981.80
2019-04-23T18:21:44.434Z,96983.86
2019-04-23T18:23:34.690Z,96991.70
2019-04-23T18:30:10.977Z,96989.41
2019-04-23T18:32:25.240Z,96993.34
2019-04-23T18:34:47.027Z,97000.01
2019-04-23T18:36:30.353Z,97000.82
2019-04-23T18:42:54.216Z,97011.38
2019-04-23T18:47:09.007Z,97014.58
2019-04-23T18:49:10.869Z,97020.47
2019-04-23T18:51:31.719Z,97018.17
2019-04-23T18:53:35.278Z,97027.84
2019-04-23T18:55:54.274Z,97033.58
2019-04-23T18:57:55.299Z,97031.85
2019-04-23T18:59:47.396Z,97033.10
2019-04-23T19:02:02.513Z,97028.86
2019-04-23T19:06:43.991Z,97038.73
2019-04-23T19:09:02.883Z,97042.52
2019-04-23T19:11:37.188Z,97050.00
2019-04-23T19:15:38.032Z,97043.64
2019-04-23T19:17:56.409Z,97050.75
2019-04-23T19:20:01.118Z,97053.97
2019-04-23T19:22:12.315Z,97052.34
2019-04-23T19:23:54.767Z,97061.80
2019-04-23T19:26:09.616Z,97064.98
2019-04-23T19:28:30.224Z,97060.73
2019-04-23T19:32:28.274Z,97065.66
2019-04-23T19:36:52.564Z,97063.52
2019-04-23T19:38:46.071Z,97063.06
2019-04-23T19:40:56.681Z,97062.84
2019-04-23T19:42:54.186Z,97073.61
2019-04-23T19:44:57.374Z,97070.24
2019-04-23T19:47:09.549Z,97071.51
2019-04-23T19:51:18.703Z,97073.30
2019-04-23T19:53:36.364Z,97076.26
2019-04-23T19:55:31.520Z,97074.27
2019-04-23T19:57:57.970Z,97073.80
2019-04-23T19:59:47.621Z,97074.69
2019-04-23T20:01:47.270Z,97080.08
2019-04-23T20:06:02.958Z,97078.91
2019-04-23T20:10:03.658Z,97075.84
2019-04-23T20:12:15.564Z,97074.09
2019-04-23T20:14:26.214Z,97075.11
2019-04-23T20:16:40.044Z,97087.05
2019-04-23T20:18:47.798Z,97082.19
2019-04-23T20:25:10.781Z,97082.33
2019-04-23T20:29:36.071Z,97073.78
2019-04-23T20:33:55.142Z,97084.68
2019-04-23T20:35:52.383Z,97079.02
2019-04-23T20:38:19.018Z,97082.77
2019-04-23T20:44:11.883Z,97090.56
2019-04-23T20:46:36.791Z,97098.10
2019-04-23T20:48:25.184Z,97101.51
2019-04-23T20:50:27.614Z,97098.94
2019-04-23T20:52:22.718Z,97101.97
2019-04-23T20:54:49.298Z,97094.78
2019-04-23T20:56:56.119Z,97099.34
2019-04-23T21:01:26.947Z,97087.70
2019-04-23T21:03:30.835Z,97092.39
2019-04-23T21:05:15.229Z,97100.98
2019-04-23T21:07:35.188Z,97097.77
2019-04-23T21:11:40.631Z,97098.81
2019-04-23T21:14:03.595Z,97097.52
2019-04-23T21:15:45.294Z,97097.13
2019-04-23T21:17:58.246Z,97103.06
2019-04-23T21:20:08.847Z,97104.92
2019-04-23T21:22:09.526Z,97095.80
2019-04-23T21:24:08.736Z,97098.07
2019-04-23T21:26:01.845Z,97097.09
2019-04-23T21:30:58.970Z,97106.66
2019-04-23T21:32:56.025Z,97106.15
2019-04-23T21:35:04.939Z,97106.83
2019-04-23T21:36:58.067Z,97108.25
2019-04-23T21:39:41.838Z,97106.88
2019-04-23T21:46:07.224Z,97109.14
2019-04-23T21:52:11.783Z,97104.27
2019-04-23T21:54:14.962Z,97107.61
2019-04-23T21:56:31.256Z,97113.97
2019-04-23T21:58:51.421Z,97111.30
2019-04-23T22:00:53.085Z,97124.27
2019-04-23T22:04:52.089Z,97119.63
2019-04-23T22:06:52.753Z,97116.88
2019-04-23T22:09:04.254Z,97118.26
2019-04-23T22:11:36.254Z,97127.58
2019-04-23T22:13:19.799Z,97115.20
2019-04-23T22:15:26.552Z,97120.14
2019-04-23T22:17:26.714Z,97121.73
2019-04-23T22:19:27.330Z,97122.64
2019-04-23T22:23:50.613Z,97123.83
2019-04-23T22:25:56.349Z,97125.95
2019-04-23T22:27:54.885Z,97127.41
2019-04-23T22:29:59.062Z,97133.20
2019-04-23T22:32:02.507Z,97130.05
2019-04-23T22:36:16.491Z,97130.62
2019-04-23T22:40:25.374Z,97127.66
2019-04-23T22:44:51.091Z,97136.53
2019-04-23T22:46:52.502Z,97136.27
2019-04-23T22:49:17.647Z,97143.87
2019-04-23T22:51:21.035Z,97142.28
2019-04-23T22:53:18.934Z,97139.91
2019-04-23T22:57:37.140Z,97133.52
2019-04-23T23:01:59.237Z,97140.05
2019-04-23T23:03:52.878Z,97136.93
2019-04-23T23:06:11.010Z,97134.41
2019-04-23T23:10:18.811Z,97127.39
2019-04-23T23:12:27.996Z,97131.18
2019-04-23T23:14:23.842Z,97127.95
2019-04-23T23:18:54.645Z,97133.92
2019-04-23T23:25:03.360Z,97133.59
2019-04-23T23:26:57.391Z,97132.81
2019-04-23T23:29:16.026Z,97130.63
2019-04-23T23:31:06.863Z,97135.78
2019-04-23T23:33:19.232Z,97133.30
2019-04-23T23:35:24.548Z,97137.16
2019-04-23T23:37:19.048Z,97137.16
2019-04-23T23:39:27.199Z,97138.61
2019-04-23T23:41:46.922Z,97137.30
2019-04-23T23:46:04.875Z,97131.39
2019-04-23T23:47:59.463Z,97135.59
2019-04-23T23:50:11.171Z,97143.97
2019-04-23T23:52:02.892Z,97141.37
2019-04-23T23:54:13.602Z,97140.55
2019-04-23T23:56:17.765Z,97140.55
2019-04-23T23:58:28.916Z,97146.41
